sensor_id;sensor_type;location;lat;lon;timestamp;P1;durP1;ratioP1;P2;durP2;ratioP2
60675;SDS011;46716;38.014;-7.874;2022-12-11T00:00:16;8.45;;;1.45;;
60675;SDS011;46716;38.014;-7.874;2022-12-11T00:02:18;6.15;;;1.50;;
60675;SDS011;46716;38.014;-7.874;2022-12-11T00:04:19;5.88;;;2.33;;
60675;SDS011;46716;38.014;-7.874;2022-12-11T00:06:20;9.75;;;1.75;;
60675;SDS011;46716;38.014;-7.874;2022-12-11T00:10:23;4.00;;;1.17;;
60675;SDS011;46716;38.014;-7.874;2022-12-11T00:12:24;6.63;;;1.70;;
60675;SDS011;46716;38.014;-7.874;2022-12-11T00:14:25;5.45;;;1.40;;
60675;SDS011;46716;38.014;-7.874;2022-12-11T00:16:26;4.60;;;1.55;;
60675;SDS011;46716;38.014;-7.874;2022-12-11T00:18:27;5.65;;;1.55;;
60675;SDS011;46716;38.014;-7.874;2022-12-11T00:20:28;8.20;;;1.85;;
60675;SDS011;46716;38.014;-7.874;2022-12-11T00:22:29;3.35;;;1.30;;
60675;SDS011;46716;38.014;-7.874;2022-12-11T00:24:30;5.55;;;1.30;;
60675;SDS011;46716;38.014;-7.874;2022-12-11T00:26:32;7.50;;;1.58;;
60675;SDS011;46716;38.014;-7.874;2022-12-11T00:28:33;5.97;;;1.45;;
60675;SDS011;46716;38.014;-7.874;2022-12-11T00:30:37;8.05;;;1.83;;
60675;SDS011;46716;38.014;-7.874;2022-12-11T00:32:40;2.88;;;1.10;;
60675;SDS011;46716;38.014;-7.874;2022-12-11T00:34:41;6.53;;;1.33;;
60675;SDS011;46716;38.014;-7.874;2022-12-11T00:36:42;4.60;;;1.25;;
60675;SDS011;46716;38.014;-7.874;2022-12-11T00:38:43;3.95;;;1.17;;
60675;SDS011;46716;38.014;-7.874;2022-12-11T00:40:44;3.30;;;1.40;;
60675;SDS011;46716;38.014;-7.874;2022-12-11T00:42:45;4.22;;;1.30;;
60675;SDS011;46716;38.014;-7.874;2022-12-11T00:44:47;3.03;;;1.27;;
60675;SDS011;46716;38.014;-7.874;2022-12-11T00:46:47;5.10;;;1.33;;
60675;SDS011;46716;38.014;-7.874;2022-12-11T00:48:49;6.65;;;1.40;;
60675;SDS011;46716;38.014;-7.874;2022-12-11T00:50:50;2.15;;;0.95;;
60675;SDS011;46716;38.014;-7.874;2022-12-11T00:52:54;2.17;;;0.90;;
60675;SDS011;46716;38.014;-7.874;2022-12-11T00:54:55;4.60;;;1.38;;
60675;SDS011;46716;38.014;-7.874;2022-12-11T00:56:56;6.32;;;1.55;;
60675;SDS011;46716;38.014;-7.874;2022-12-11T00:58:56;6.88;;;1.13;;
60675;SDS011;46716;38.014;-7.874;2022-12-11T01:01:03;3.03;;;0.80;;
60675;SDS011;46716;38.014;-7.874;2022-12-11T01:03:15;5.78;;;1.27;;
60675;SDS011;46716;38.014;-7.874;2022-12-11T01:05:17;7.30;;;1.30;;
60675;SDS011;46716;38.014;-7.874;2022-12-11T01:07:18;5.57;;;1.00;;
60675;SDS011;46716;38.014;-7.874;2022-12-11T01:09:19;7.60;;;1.45;;
60675;SDS011;46716;38.014;-7.874;2022-12-11T01:11:39;6.20;;;1.23;;
60675;SDS011;46716;38.014;-7.874;2022-12-11T01:13:42;3.15;;;1.20;;
60675;SDS011;46716;38.014;-7.874;2022-12-11T01:15:43;6.30;;;1.38;;
60675;SDS011;46716;38.014;-7.874;2022-12-11T01:17:45;3.70;;;0.93;;
60675;SDS011;46716;38.014;-7.874;2022-12-11T01:19:46;6.13;;;1.10;;
60675;SDS011;46716;38.014;-7.874;2022-12-11T01:21:50;5.72;;;1.00;;
60675;SDS011;46716;38.014;-7.874;2022-12-11T01:23:54;2.80;;;0.90;;
60675;SDS011;46716;38.014;-7.874;2022-12-11T01:25:55;9.15;;;1.45;;
60675;SDS011;46716;38.014;-7.874;2022-12-11T01:27:59;3.67;;;1.10;;
60675;SDS011;46716;38.014;-7.874;2022-12-11T01:30:00;4.00;;;1.05;;
60675;SDS011;46716;38.014;-7.874;2022-12-11T01:32:01;5.82;;;0.95;;
60675;SDS011;46716;38.014;-7.874;2022-12-11T01:34:05;4.07;;;1.50;;
60675;SDS011;46716;38.014;-7.874;2022-12-11T01:36:16;2.75;;;0.80;;
60675;SDS011;46716;38.014;-7.874;2022-12-11T01:38:18;3.72;;;1.42;;
60675;SDS011;46716;38.014;-7.874;2022-12-11T01:40:19;3.42;;;1.10;;
60675;SDS011;46716;38.014;-7.874;2022-12-11T01:42:24;1.63;;;0.73;;
60675;SDS011;46716;38.014;-7.874;2022-12-11T01:46:31;3.90;;;1.10;;
60675;SDS011;46716;38.014;-7.874;2022-12-11T01:48:34;2.92;;;1.02;;
60675;SDS011;46716;38.014;-7.874;2022-12-11T01:50:46;3.25;;;0.95;;
60675;SDS011;46716;38.014;-7.874;2022-12-11T01:52:50;5.85;;;1.05;;
60675;SDS011;46716;38.014;-7.874;2022-12-11T01:54:52;7.50;;;0.98;;
60675;SDS011;46716;38.014;-7.874;2022-12-11T01:56:57;4.90;;;1.17;;
60675;SDS011;46716;38.014;-7.874;2022-12-11T01:59:04;5.13;;;0.90;;
60675;SDS011;46716;38.014;-7.874;2022-12-11T02:01:09;8.27;;;1.20;;
60675;SDS011;46716;38.014;-7.874;2022-12-11T02:03:21;2.92;;;0.70;;
60675;SDS011;46716;38.014;-7.874;2022-12-11T02:05:22;3.40;;;1.02;;
60675;SDS011;46716;38.014;-7.874;2022-12-11T02:07:23;4.55;;;0.80;;
60675;SDS011;46716;38.014;-7.874;2022-12-11T02:09:26;1.48;;;0.82;;
60675;SDS011;46716;38.014;-7.874;2022-12-11T02:11:34;6.07;;;1.45;;
60675;SDS011;46716;38.014;-7.874;2022-12-11T02:13:48;2.53;;;0.60;;
60675;SDS011;46716;38.014;-7.874;2022-12-11T02:16:02;3.65;;;0.80;;
60675;SDS011;46716;38.014;-7.874;2022-12-11T02:18:54;1.77;;;0.75;;
60675;SDS011;46716;38.014;-7.874;2022-12-11T02:21:25;3.47;;;0.65;;
60675;SDS011;46716;38.014;-7.874;2022-12-11T02:23:57;2.00;;;0.70;;
60675;SDS011;46716;38.014;-7.874;2022-12-11T02:26:18;4.45;;;0.88;;
60675;SDS011;46716;38.014;-7.874;2022-12-11T02:28:56;4.60;;;0.68;;
60675;SDS011;46716;38.014;-7.874;2022-12-11T02:31:04;1.05;;;0.55;;
60675;SDS011;46716;38.014;-7.874;2022-12-11T02:33:11;1.48;;;0.95;;
60675;SDS011;46716;38.014;-7.874;2022-12-11T02:35:37;3.20;;;0.43;;
60675;SDS011;46716;38.014;-7.874;2022-12-11T02:37:41;2.40;;;0.60;;
60675;SDS011;46716;38.014;-7.874;2022-12-11T02:39:45;2.30;;;0.88;;
60675;SDS011;46716;38.014;-7.874;2022-12-11T02:41:51;3.53;;;0.80;;
60675;SDS011;46716;38.014;-7.874;2022-12-11T02:45:56;0.82;;;0.43;;
60675;SDS011;46716;38.014;-7.874;2022-12-11T02:48:00;3.13;;;0.55;;
60675;SDS011;46716;38.014;-7.874;2022-12-11T02:50:06;0.47;;;0.43;;
60675;SDS011;46716;38.014;-7.874;2022-12-11T02:52:11;1.65;;;0.70;;
60675;SDS011;46716;38.014;-7.874;2022-12-11T02:54:15;0.80;;;0.47;;
60675;SDS011;46716;38.014;-7.874;2022-12-11T02:56:21;0.68;;;0.50;;
60675;SDS011;46716;38.014;-7.874;2022-12-11T02:58:31;1.85;;;0.60;;
60675;SDS011;46716;38.014;-7.874;2022-12-11T03:00:33;3.92;;;0.40;;
60675;SDS011;46716;38.014;-7.874;2022-12-11T03:02:38;1.15;;;0.45;;
60675;SDS011;46716;38.014;-7.874;2022-12-11T03:04:43;0.95;;;0.40;;
60675;SDS011;46716;38.014;-7.874;2022-12-11T03:06:48;1.35;;;0.30;;
60675;SDS011;46716;38.014;-7.874;2022-12-11T03:08:53;2.83;;;0.50;;
60675;SDS011;46716;38.014;-7.874;2022-12-11T03:10:54;1.25;;;0.30;;
60675;SDS011;46716;38.014;-7.874;2022-12-11T03:12:55;2.00;;;0.50;;
60675;SDS011;46716;38.014;-7.874;2022-12-11T03:15:03;1.05;;;0.40;;
60675;SDS011;46716;38.014;-7.874;2022-12-11T03:22:21;1.77;;;0.50;;
60675;SDS011;46716;38.014;-7.874;2022-12-11T03:26:29;3.17;;;0.50;;
60675;SDS011;46716;38.014;-7.874;2022-12-11T03:28:44;1.55;;;0.30;;
60675;SDS011;46716;38.014;-7.874;2022-12-11T03:30:48;1.52;;;0.45;;
60675;SDS011;46716;38.014;-7.874;2022-12-11T03:32:57;1.15;;;0.40;;
60675;SDS011;46716;38.014;-7.874;2022-12-11T03:35:04;1.27;;;0.40;;
60675;SDS011;46716;38.014;-7.874;2022-12-11T03:37:14;1.58;;;0.40;;
60675;SDS011;46716;38.014;-7.874;2022-12-11T03:39:20;4.50;;;0.50;;
60675;SDS011;46716;38.014;-7.874;2022-12-11T03:41:36;1.88;;;0.30;;
60675;SDS011;46716;38.014;-7.874;2022-12-11T03:43:39;1.75;;;0.55;;
60675;SDS011;46716;38.014;-7.874;2022-12-11T03:45:41;1.03;;;0.30;;
60675;SDS011;46716;38.014;-7.874;2022-12-11T03:47:43;2.42;;;0.30;;
60675;SDS011;46716;38.014;-7.874;2022-12-11T03:51:48;0.63;;;0.25;;
60675;SDS011;46716;38.014;-7.874;2022-12-11T03:53:51;1.55;;;0.40;;
60675;SDS011;46716;38.014;-7.874;2022-12-11T03:55:53;0.45;;;0.40;;
60675;SDS011;46716;38.014;-7.874;2022-12-11T03:57:57;0.40;;;0.28;;
60675;SDS011;46716;38.014;-7.874;2022-12-11T03:59:58;2.55;;;0.40;;
60675;SDS011;46716;38.014;-7.874;2022-12-11T04:02:00;1.50;;;0.28;;
60675;SDS011;46716;38.014;-7.874;2022-12-11T04:04:00;0.55;;;0.22;;
60675;SDS011;46716;38.014;-7.874;2022-12-11T04:06:01;0.20;;;0.20;;
60675;SDS011;46716;38.014;-7.874;2022-12-11T04:08:02;0.38;;;0.20;;
60675;SDS011;46716;38.014;-7.874;2022-12-11T04:10:04;0.55;;;0.30;;
60675;SDS011;46716;38.014;-7.874;2022-12-11T04:12:06;1.13;;;0.50;;
60675;SDS011;46716;38.014;-7.874;2022-12-11T04:14:09;0.55;;;0.30;;
60675;SDS011;46716;38.014;-7.874;2022-12-11T04:16:30;3.40;;;0.30;;
60675;SDS011;46716;38.014;-7.874;2022-12-11T04:18:31;1.27;;;0.20;;
60675;SDS011;46716;38.014;-7.874;2022-12-11T04:20:54;2.70;;;0.45;;
60675;SDS011;46716;38.014;-7.874;2022-12-11T04:23:15;0.20;;;0.20;;
60675;SDS011;46716;38.014;-7.874;2022-12-11T04:25:36;0.20;;;0.20;;
60675;SDS011;46716;38.014;-7.874;2022-12-11T04:27:37;0.40;;;0.30;;
60675;SDS011;46716;38.014;-7.874;2022-12-11T04:29:50;0.65;;;0.40;;
60675;SDS011;46716;38.014;-7.874;2022-12-11T04:31:51;0.65;;;0.30;;
60675;SDS011;46716;38.014;-7.874;2022-12-11T04:33:52;0.43;;;0.28;;
60675;SDS011;46716;38.014;-7.874;2022-12-11T04:35:53;1.08;;;0.30;;
60675;SDS011;46716;38.014;-7.874;2022-12-11T04:37:56;3.45;;;0.52;;
60675;SDS011;46716;38.014;-7.874;2022-12-11T04:39:58;0.75;;;0.20;;
60675;SDS011;46716;38.014;-7.874;2022-12-11T04:41:59;0.28;;;0.20;;
60675;SDS011;46716;38.014;-7.874;2022-12-11T04:44:00;0.13;;;0.13;;
60675;SDS011;46716;38.014;-7.874;2022-12-11T04:46:05;0.98;;;0.32;;
60675;SDS011;46716;38.014;-7.874;2022-12-11T04:48:06;1.30;;;0.50;;
60675;SDS011;46716;38.014;-7.874;2022-12-11T04:50:08;1.20;;;0.40;;
60675;SDS011;46716;38.014;-7.874;2022-12-11T04:52:10;1.25;;;0.40;;
60675;SDS011;46716;38.014;-7.874;2022-12-11T04:54:11;1.17;;;0.40;;
60675;SDS011;46716;38.014;-7.874;2022-12-11T04:56:14;1.13;;;0.30;;
60675;SDS011;46716;38.014;-7.874;2022-12-11T04:58:15;1.88;;;0.40;;
60675;SDS011;46716;38.014;-7.874;2022-12-11T05:00:17;0.30;;;0.25;;
60675;SDS011;46716;38.014;-7.874;2022-12-11T05:02:17;2.13;;;0.43;;
60675;SDS011;46716;38.014;-7.874;2022-12-11T05:04:18;1.08;;;0.30;;
60675;SDS011;46716;38.014;-7.874;2022-12-11T05:06:19;0.93;;;0.30;;
60675;SDS011;46716;38.014;-7.874;2022-12-11T05:08:20;0.55;;;0.30;;
60675;SDS011;46716;38.014;-7.874;2022-12-11T05:10:21;2.00;;;0.63;;
60675;SDS011;46716;38.014;-7.874;2022-12-11T05:12:22;0.80;;;0.30;;
60675;SDS011;46716;38.014;-7.874;2022-12-11T05:14:23;0.77;;;0.50;;
60675;SDS011;46716;38.014;-7.874;2022-12-11T05:16:25;5.97;;;0.82;;
60675;SDS011;46716;38.014;-7.874;2022-12-11T05:18:26;3.92;;;1.08;;
60675;SDS011;46716;38.014;-7.874;2022-12-11T05:20:27;7.60;;;1.40;;
60675;SDS011;46716;38.014;-7.874;2022-12-11T05:22:28;10.95;;;1.65;;
60675;SDS011;46716;38.014;-7.874;2022-12-11T05:24:30;16.42;;;2.13;;
60675;SDS011;46716;38.014;-7.874;2022-12-11T05:26:31;19.60;;;2.67;;
60675;SDS011;46716;38.014;-7.874;2022-12-11T05:28:33;16.17;;;2.58;;
60675;SDS011;46716;38.014;-7.874;2022-12-11T05:30:36;23.40;;;2.97;;
60675;SDS011;46716;38.014;-7.874;2022-12-11T05:32:37;18.15;;;3.28;;
60675;SDS011;46716;38.014;-7.874;2022-12-11T05:34:38;40.20;;;3.50;;
60675;SDS011;46716;38.014;-7.874;2022-12-11T05:36:39;28.85;;;4.68;;
60675;SDS011;46716;38.014;-7.874;2022-12-11T05:38:40;26.10;;;3.85;;
60675;SDS011;46716;38.014;-7.874;2022-12-11T05:40:41;20.83;;;3.80;;
60675;SDS011;46716;38.014;-7.874;2022-12-11T05:42:42;33.47;;;3.85;;
60675;SDS011;46716;38.014;-7.874;2022-12-11T05:44:43;37.45;;;3.78;;
60675;SDS011;46716;38.014;-7.874;2022-12-11T05:46:43;26.63;;;3.75;;
60675;SDS011;46716;38.014;-7.874;2022-12-11T05:48:45;33.03;;;3.97;;
60675;SDS011;46716;38.014;-7.874;2022-12-11T05:50:57;24.63;;;4.53;;
60675;SDS011;46716;38.014;-7.874;2022-12-11T05:52:59;22.27;;;3.28;;
60675;SDS011;46716;38.014;-7.874;2022-12-11T05:55:00;14.85;;;3.25;;
60675;SDS011;46716;38.014;-7.874;2022-12-11T05:57:01;16.80;;;2.90;;
60675;SDS011;46716;38.014;-7.874;2022-12-11T05:59:03;24.30;;;3.42;;
60675;SDS011;46716;38.014;-7.874;2022-12-11T06:01:12;20.23;;;3.40;;
60675;SDS011;46716;38.014;-7.874;2022-12-11T06:03:23;22.77;;;4.75;;
60675;SDS011;46716;38.014;-7.874;2022-12-11T06:05:24;28.08;;;3.97;;
60675;SDS011;46716;38.014;-7.874;2022-12-11T06:07:25;21.25;;;3.53;;
60675;SDS011;46716;38.014;-7.874;2022-12-11T06:09:26;30.60;;;4.50;;
60675;SDS011;46716;38.014;-7.874;2022-12-11T06:11:28;29.98;;;4.35;;
60675;SDS011;46716;38.014;-7.874;2022-12-11T06:13:30;22.73;;;3.95;;
60675;SDS011;46716;38.014;-7.874;2022-12-11T06:15:31;27.00;;;4.40;;
60675;SDS011;46716;38.014;-7.874;2022-12-11T06:17:32;29.48;;;4.18;;
60675;SDS011;46716;38.014;-7.874;2022-12-11T06:19:33;26.50;;;4.00;;
60675;SDS011;46716;38.014;-7.874;2022-12-11T06:21:34;33.58;;;3.67;;
60675;SDS011;46716;38.014;-7.874;2022-12-11T06:23:35;25.33;;;4.63;;
60675;SDS011;46716;38.014;-7.874;2022-12-11T06:25:39;29.02;;;3.78;;
60675;SDS011;46716;38.014;-7.874;2022-12-11T06:27:40;25.88;;;3.65;;
60675;SDS011;46716;38.014;-7.874;2022-12-11T06:29:41;26.58;;;3.45;;
60675;SDS011;46716;38.014;-7.874;2022-12-11T06:31:42;24.38;;;4.03;;
60675;SDS011;46716;38.014;-7.874;2022-12-11T06:33:43;23.20;;;5.10;;
60675;SDS011;46716;38.014;-7.874;2022-12-11T06:35:44;26.38;;;3.25;;
60675;SDS011;46716;38.014;-7.874;2022-12-11T06:37:45;32.85;;;4.53;;
60675;SDS011;46716;38.014;-7.874;2022-12-11T06:39:46;28.95;;;4.55;;
60675;SDS011;46716;38.014;-7.874;2022-12-11T06:41:50;25.27;;;4.60;;
60675;SDS011;46716;38.014;-7.874;2022-12-11T06:43:51;27.60;;;4.95;;
60675;SDS011;46716;38.014;-7.874;2022-12-11T06:45:52;35.28;;;5.57;;
60675;SDS011;46716;38.014;-7.874;2022-12-11T06:47:53;30.85;;;4.32;;
60675;SDS011;46716;38.014;-7.874;2022-12-11T06:49:54;26.67;;;5.32;;
60675;SDS011;46716;38.014;-7.874;2022-12-11T06:51:56;25.77;;;5.03;;
60675;SDS011;46716;38.014;-7.874;2022-12-11T06:53:57;30.70;;;5.40;;
60675;SDS011;46716;38.014;-7.874;2022-12-11T06:56:02;35.03;;;5.32;;
60675;SDS011;46716;38.014;-7.874;2022-12-11T06:58:08;35.53;;;5.28;;
60675;SDS011;46716;38.014;-7.874;2022-12-11T07:00:10;22.38;;;5.50;;
60675;SDS011;46716;38.014;-7.874;2022-12-11T07:02:12;18.20;;;4.53;;
60675;SDS011;46716;38.014;-7.874;2022-12-11T07:04:17;19.58;;;3.17;;
60675;SDS011;46716;38.014;-7.874;2022-12-11T07:06:18;17.42;;;3.58;;
60675;SDS011;46716;38.014;-7.874;2022-12-11T07:08:19;12.55;;;3.38;;
60675;SDS011;46716;38.014;-7.874;2022-12-11T07:10:20;21.77;;;3.75;;
60675;SDS011;46716;38.014;-7.874;2022-12-11T07:12:22;15.70;;;3.33;;
60675;SDS011;46716;38.014;-7.874;2022-12-11T07:14:23;20.27;;;3.95;;
60675;SDS011;46716;38.014;-7.874;2022-12-11T07:16:24;14.75;;;3.70;;
60675;SDS011;46716;38.014;-7.874;2022-12-11T07:18:25;31.27;;;4.47;;
60675;SDS011;46716;38.014;-7.874;2022-12-11T07:20:26;17.50;;;3.15;;
60675;SDS011;46716;38.014;-7.874;2022-12-11T07:22:27;21.20;;;4.00;;
60675;SDS011;46716;38.014;-7.874;2022-12-11T07:24:28;23.55;;;2.72;;
60675;SDS011;46716;38.014;-7.874;2022-12-11T07:26:29;16.67;;;2.85;;
60675;SDS011;46716;38.014;-7.874;2022-12-11T07:28:30;17.77;;;2.13;;
60675;SDS011;46716;38.014;-7.874;2022-12-11T07:30:31;15.48;;;2.80;;
60675;SDS011;46716;38.014;-7.874;2022-12-11T07:32:32;18.60;;;2.38;;
60675;SDS011;46716;38.014;-7.874;2022-12-11T07:34:33;24.65;;;3.53;;
60675;SDS011;46716;38.014;-7.874;2022-12-11T07:36:34;18.95;;;3.30;;
60675;SDS011;46716;38.014;-7.874;2022-12-11T07:38:35;26.05;;;3.28;;
60675;SDS011;46716;38.014;-7.874;2022-12-11T07:40:36;20.17;;;3.42;;
60675;SDS011;46716;38.014;-7.874;2022-12-11T07:42:37;12.63;;;3.15;;
60675;SDS011;46716;38.014;-7.874;2022-12-11T07:44:38;20.17;;;2.92;;
60675;SDS011;46716;38.014;-7.874;2022-12-11T07:46:38;21.65;;;3.45;;
60675;SDS011;46716;38.014;-7.874;2022-12-11T07:48:40;18.98;;;2.90;;
60675;SDS011;46716;38.014;-7.874;2022-12-11T07:50:43;16.85;;;2.92;;
60675;SDS011;46716;38.014;-7.874;2022-12-11T07:52:43;26.83;;;3.83;;
60675;SDS011;46716;38.014;-7.874;2022-12-11T07:54:44;14.00;;;2.55;;
60675;SDS011;46716;38.014;-7.874;2022-12-11T07:56:46;18.25;;;2.65;;
60675;SDS011;46716;38.014;-7.874;2022-12-11T07:58:47;24.83;;;3.67;;
60675;SDS011;46716;38.014;-7.874;2022-12-11T08:00:48;15.40;;;3.92;;
60675;SDS011;46716;38.014;-7.874;2022-12-11T08:02:49;17.90;;;3.10;;
60675;SDS011;46716;38.014;-7.874;2022-12-11T08:04:50;20.52;;;3.42;;
60675;SDS011;46716;38.014;-7.874;2022-12-11T08:06:51;27.25;;;3.17;;
60675;SDS011;46716;38.014;-7.874;2022-12-11T08:08:53;28.92;;;3.47;;
60675;SDS011;46716;38.014;-7.874;2022-12-11T08:10:54;20.58;;;3.28;;
60675;SDS011;46716;38.014;-7.874;2022-12-11T08:12:56;33.75;;;5.50;;
60675;SDS011;46716;38.014;-7.874;2022-12-11T08:14:56;21.67;;;3.45;;
60675;SDS011;46716;38.014;-7.874;2022-12-11T08:16:57;23.27;;;3.53;;
60675;SDS011;46716;38.014;-7.874;2022-12-11T08:18:59;23.83;;;3.03;;
60675;SDS011;46716;38.014;-7.874;2022-12-11T08:21:04;25.50;;;3.47;;
60675;SDS011;46716;38.014;-7.874;2022-12-11T08:23:05;17.50;;;3.15;;
60675;SDS011;46716;38.014;-7.874;2022-12-11T08:25:06;19.90;;;3.22;;
60675;SDS011;46716;38.014;-7.874;2022-12-11T08:27:07;24.40;;;4.18;;
60675;SDS011;46716;38.014;-7.874;2022-12-11T08:29:08;20.70;;;3.10;;
60675;SDS011;46716;38.014;-7.874;2022-12-11T08:31:11;20.25;;;4.57;;
60675;SDS011;46716;38.014;-7.874;2022-12-11T08:33:13;23.50;;;4.05;;
60675;SDS011;46716;38.014;-7.874;2022-12-11T08:35:14;24.08;;;3.55;;
60675;SDS011;46716;38.014;-7.874;2022-12-11T08:37:15;23.92;;;3.42;;
60675;SDS011;46716;38.014;-7.874;2022-12-11T08:39:16;22.95;;;3.92;;
60675;SDS011;46716;38.014;-7.874;2022-12-11T08:41:18;26.70;;;4.32;;
60675;SDS011;46716;38.014;-7.874;2022-12-11T08:43:22;24.48;;;3.58;;
60675;SDS011;46716;38.014;-7.874;2022-12-11T08:45:24;19.70;;;4.97;;
60675;SDS011;46716;38.014;-7.874;2022-12-11T08:47:26;17.83;;;3.53;;
60675;SDS011;46716;38.014;-7.874;2022-12-11T08:49:27;32.55;;;3.90;;
60675;SDS011;46716;38.014;-7.874;2022-12-11T08:51:28;23.23;;;4.32;;
60675;SDS011;46716;38.014;-7.874;2022-12-11T08:53:32;25.30;;;4.25;;
60675;SDS011;46716;38.014;-7.874;2022-12-11T08:55:35;20.17;;;4.10;;
60675;SDS011;46716;38.014;-7.874;2022-12-11T08:57:36;29.48;;;4.22;;
60675;SDS011;46716;38.014;-7.874;2022-12-11T08:59:40;29.02;;;5.03;;
60675;SDS011;46716;38.014;-7.874;2022-12-11T09:01:41;30.50;;;4.22;;
60675;SDS011;46716;38.014;-7.874;2022-12-11T09:03:42;25.35;;;4.93;;
60675;SDS011;46716;38.014;-7.874;2022-12-11T09:05:43;24.67;;;3.20;;
60675;SDS011;46716;38.014;-7.874;2022-12-11T09:07:44;15.43;;;3.65;;
60675;SDS011;46716;38.014;-7.874;2022-12-11T09:09:45;24.42;;;4.47;;
60675;SDS011;46716;38.014;-7.874;2022-12-11T09:11:46;26.38;;;4.60;;
60675;SDS011;46716;38.014;-7.874;2022-12-11T09:13:47;22.13;;;4.22;;
60675;SDS011;46716;38.014;-7.874;2022-12-11T09:15:48;23.17;;;4.05;;
60675;SDS011;46716;38.014;-7.874;2022-12-11T09:17:49;34.65;;;4.78;;
60675;SDS011;46716;38.014;-7.874;2022-12-11T09:19:50;29.15;;;4.47;;
60675;SDS011;46716;38.014;-7.874;2022-12-11T09:21:51;22.40;;;5.60;;
60675;SDS011;46716;38.014;-7.874;2022-12-11T09:23:52;20.80;;;3.65;;
60675;SDS011;46716;38.014;-7.874;2022-12-11T09:25:55;27.55;;;4.63;;
60675;SDS011;46716;38.014;-7.874;2022-12-11T09:27:56;18.88;;;3.33;;
60675;SDS011;46716;38.014;-7.874;2022-12-11T09:29:57;22.33;;;4.13;;
60675;SDS011;46716;38.014;-7.874;2022-12-11T09:31:58;24.55;;;3.58;;
60675;SDS011;46716;38.014;-7.874;2022-12-11T09:34:00;25.85;;;4.00;;
60675;SDS011;46716;38.014;-7.874;2022-12-11T09:36:06;27.90;;;4.20;;
60675;SDS011;46716;38.014;-7.874;2022-12-11T09:38:07;20.67;;;4.65;;
60675;SDS011;46716;38.014;-7.874;2022-12-11T09:40:09;24.35;;;3.42;;
60675;SDS011;46716;38.014;-7.874;2022-12-11T09:42:19;24.10;;;3.55;;
60675;SDS011;46716;38.014;-7.874;2022-12-11T09:46:57;32.70;;;4.45;;
60675;SDS011;46716;38.014;-7.874;2022-12-11T09:48:58;25.38;;;3.60;;
60675;SDS011;46716;38.014;-7.874;2022-12-11T09:51:04;20.20;;;3.03;;
60675;SDS011;46716;38.014;-7.874;2022-12-11T09:53:15;24.20;;;4.13;;
60675;SDS011;46716;38.014;-7.874;2022-12-11T09:55:22;18.95;;;3.88;;
60675;SDS011;46716;38.014;-7.874;2022-12-11T10:04:02;32.47;;;4.00;;
60675;SDS011;46716;38.014;-7.874;2022-12-11T10:08:26;17.92;;;3.58;;
60675;SDS011;46716;38.014;-7.874;2022-12-11T10:17:20;20.77;;;2.92;;
60675;SDS011;46716;38.014;-7.874;2022-12-11T10:19:30;19.23;;;3.55;;
60675;SDS011;46716;38.014;-7.874;2022-12-11T10:21:37;20.23;;;2.97;;
60675;SDS011;46716;38.014;-7.874;2022-12-11T10:23:55;29.25;;;4.45;;
60675;SDS011;46716;38.014;-7.874;2022-12-11T10:26:11;12.43;;;2.72;;
60675;SDS011;46716;38.014;-7.874;2022-12-11T10:28:18;24.05;;;5.53;;
60675;SDS011;46716;38.014;-7.874;2022-12-11T10:32:24;19.60;;;2.80;;
60675;SDS011;46716;38.014;-7.874;2022-12-11T10:34:54;21.58;;;3.45;;
60675;SDS011;46716;38.014;-7.874;2022-12-11T10:37:01;16.00;;;3.22;;
60675;SDS011;46716;38.014;-7.874;2022-12-11T10:39:02;21.95;;;4.15;;
60675;SDS011;46716;38.014;-7.874;2022-12-11T10:41:11;22.80;;;2.60;;
60675;SDS011;46716;38.014;-7.874;2022-12-11T10:43:14;21.73;;;3.13;;
60675;SDS011;46716;38.014;-7.874;2022-12-11T10:45:15;18.88;;;3.30;;
60675;SDS011;46716;38.014;-7.874;2022-12-11T10:47:18;14.13;;;2.60;;
60675;SDS011;46716;38.014;-7.874;2022-12-11T10:49:20;15.75;;;2.55;;
60675;SDS011;46716;38.014;-7.874;2022-12-11T10:51:33;23.38;;;3.65;;
60675;SDS011;46716;38.014;-7.874;2022-12-11T10:53:35;18.98;;;3.13;;
60675;SDS011;46716;38.014;-7.874;2022-12-11T10:55:42;23.70;;;3.80;;
60675;SDS011;46716;38.014;-7.874;2022-12-11T10:57:45;23.00;;;2.95;;
60675;SDS011;46716;38.014;-7.874;2022-12-11T11:00:04;22.80;;;3.20;;
60675;SDS011;46716;38.014;-7.874;2022-12-11T11:02:14;19.88;;;3.22;;
60675;SDS011;46716;38.014;-7.874;2022-12-11T11:04:34;21.83;;;4.82;;
60675;SDS011;46716;38.014;-7.874;2022-12-11T11:06:37;22.38;;;3.05;;
60675;SDS011;46716;38.014;-7.874;2022-12-11T11:08:39;19.95;;;3.22;;
60675;SDS011;46716;38.014;-7.874;2022-12-11T11:10:55;22.88;;;4.53;;
60675;SDS011;46716;38.014;-7.874;2022-12-11T11:15:04;29.33;;;5.00;;
60675;SDS011;46716;38.014;-7.874;2022-12-11T11:17:17;26.23;;;4.72;;
60675;SDS011;46716;38.014;-7.874;2022-12-11T11:21:33;28.73;;;4.60;;
60675;SDS011;46716;38.014;-7.874;2022-12-11T11:23:34;21.60;;;3.30;;
60675;SDS011;46716;38.014;-7.874;2022-12-11T11:25:35;28.38;;;4.38;;
60675;SDS011;46716;38.014;-7.874;2022-12-11T11:27:42;27.35;;;4.40;;
60675;SDS011;46716;38.014;-7.874;2022-12-11T11:29:48;16.63;;;3.47;;
60675;SDS011;46716;38.014;-7.874;2022-12-11T11:31:53;22.70;;;3.53;;
60675;SDS011;46716;38.014;-7.874;2022-12-11T11:42:28;26.48;;;3.70;;
60675;SDS011;46716;38.014;-7.874;2022-12-11T11:45:09;29.23;;;4.10;;
60675;SDS011;46716;38.014;-7.874;2022-12-11T11:47:18;32.47;;;4.10;;
60675;SDS011;46716;38.014;-7.874;2022-12-11T11:51:37;27.65;;;3.83;;
60675;SDS011;46716;38.014;-7.874;2022-12-11T11:53:44;23.15;;;3.53;;
60675;SDS011;46716;38.014;-7.874;2022-12-11T11:56:34;26.30;;;4.20;;
60675;SDS011;46716;38.014;-7.874;2022-12-11T11:58:17;12.38;;;2.65;;
60675;SDS011;46716;38.014;-7.874;2022-12-11T12:00:27;22.33;;;3.38;;
60675;SDS011;46716;38.014;-7.874;2022-12-11T12:02:29;25.17;;;4.38;;
60675;SDS011;46716;38.014;-7.874;2022-12-11T12:04:32;24.17;;;3.45;;
60675;SDS011;46716;38.014;-7.874;2022-12-11T12:06:43;22.95;;;3.63;;
60675;SDS011;46716;38.014;-7.874;2022-12-11T12:09:16;22.85;;;4.10;;
60675;SDS011;46716;38.014;-7.874;2022-12-11T12:13:51;20.10;;;3.40;;
60675;SDS011;46716;38.014;-7.874;2022-12-11T12:16:03;25.73;;;4.20;;
60675;SDS011;46716;38.014;-7.874;2022-12-11T12:20:42;25.63;;;3.30;;
60675;SDS011;46716;38.014;-7.874;2022-12-11T12:22:54;23.73;;;3.95;;
60675;SDS011;46716;38.014;-7.874;2022-12-11T12:27:52;23.10;;;3.38;;
60675;SDS011;46716;38.014;-7.874;2022-12-11T12:30:09;23.50;;;3.10;;
60675;SDS011;46716;38.014;-7.874;2022-12-11T12:35:05;24.80;;;3.92;;
60675;SDS011;46716;38.014;-7.874;2022-12-11T12:39:45;17.92;;;2.97;;
60675;SDS011;46716;38.014;-7.874;2022-12-11T12:42:06;24.00;;;3.63;;
60675;SDS011;46716;38.014;-7.874;2022-12-11T12:44:26;20.10;;;3.95;;
60675;SDS011;46716;38.014;-7.874;2022-12-11T12:49:00;14.18;;;2.67;;
60675;SDS011;46716;38.014;-7.874;2022-12-11T12:51:03;23.98;;;3.67;;
60675;SDS011;46716;38.014;-7.874;2022-12-11T12:57:22;24.27;;;4.50;;
60675;SDS011;46716;38.014;-7.874;2022-12-11T12:59:24;21.40;;;3.75;;
60675;SDS011;46716;38.014;-7.874;2022-12-11T13:01:27;18.55;;;3.70;;
60675;SDS011;46716;38.014;-7.874;2022-12-11T13:03:31;25.55;;;4.18;;
60675;SDS011;46716;38.014;-7.874;2022-12-11T13:05:36;23.80;;;3.78;;
60675;SDS011;46716;38.014;-7.874;2022-12-11T13:07:40;20.02;;;3.38;;
60675;SDS011;46716;38.014;-7.874;2022-12-11T13:09:57;18.00;;;3.22;;
60675;SDS011;46716;38.014;-7.874;2022-12-11T13:12:02;21.83;;;3.83;;
60675;SDS011;46716;38.014;-7.874;2022-12-11T13:18:32;20.98;;;3.50;;
60675;SDS011;46716;38.014;-7.874;2022-12-11T13:20:44;15.30;;;3.30;;
60675;SDS011;46716;38.014;-7.874;2022-12-11T13:23:35;18.77;;;3.05;;
60675;SDS011;46716;38.014;-7.874;2022-12-11T13:25:19;27.73;;;3.13;;
60675;SDS011;46716;38.014;-7.874;2022-12-11T13:31:38;26.05;;;3.35;;